Terminal Aerodrome Forecast
Issued by NWS Newport/Morehead City, NC

Home | Current Version | Previous Version | Text Only | Print | Product List | Glossary On
Versions: 1 2 3 4 5 6 7 8 9 10 11 12 13 14
000
FTUS42 KMHX 262300
TAFEWN
TAF
KEWN 262321Z 2700/2724 35003KT P6SM -RA SCT035 OVC060
     FM270200 30010G16KT 6SM -RA BR SCT007 OVC025
     FM271000 33012G18KT 5SM -RASN SCT007 OVC015
     FM271500 33010KT P6SM OVC025
     FM272000 32008KT P6SM OVC050=

USA.gov is the U.S. government's official web portal to all federal, state and local government web resources and services.